createdAt,value
2018-04-02T00:00:37.523Z,100966.25
2018-04-02T00:03:05.841Z,100965.91
2018-04-02T00:05:34.245Z,100961.34
2018-04-02T00:08:02.651Z,100963.43
2018-04-02T00:10:30.970Z,100970.66
2018-04-02T00:12:59.340Z,100971.00
2018-04-02T00:15:27.652Z,100972.45
2018-04-02T00:17:56.000Z,100959.20
2018-04-02T00:20:24.345Z,100963.20
2018-04-02T00:22:53.456Z,100953.06
2018-04-02T00:25:21.781Z,100959.84
2018-04-02T00:27:50.193Z,100956.70
2018-04-02T00:30:19.286Z,100957.70
2018-04-02T00:32:47.662Z,100956.85
2018-04-02T00:35:21.927Z,100955.42
2018-04-02T00:37:50.263Z,100955.14
2018-04-02T00:40:18.578Z,100958.70
2018-04-02T00:42:46.951Z,100961.78
2018-04-02T00:45:15.332Z,100956.59
2018-04-02T00:47:43.654Z,100959.52
2018-04-02T00:50:13.075Z,100962.11
2018-04-02T00:52:41.500Z,100963.28
2018-04-02T00:55:10.009Z,100958.07
2018-04-02T00:57:40.604Z,100955.67
2018-04-02T01:00:09.526Z,100955.42
2018-04-02T01:02:37.852Z,100958.30
2018-04-02T01:05:06.969Z,100960.56
2018-04-02T01:07:35.270Z,100959.86
2018-04-02T01:10:03.596Z,100970.61
2018-04-02T01:12:32.136Z,100971.25
2018-04-02T01:15:00.472Z,100963.50
2018-04-02T01:17:28.794Z,100978.31
2018-04-02T01:19:58.142Z,100975.61
2018-04-02T01:22:26.654Z,100968.34
2018-04-02T01:24:55.008Z,100970.17
2018-04-02T01:27:23.559Z,100975.64
2018-04-02T01:29:51.876Z,100971.80
2018-04-02T01:32:20.356Z,100971.25
2018-04-02T01:34:49.184Z,100966.31
2018-04-02T01:37:17.533Z,100976.98
2018-04-02T01:39:46.014Z,100975.42
2018-04-02T01:42:14.356Z,100975.48
2018-04-02T01:44:42.664Z,100981.33
2018-04-02T01:47:10.982Z,100972.74
2018-04-02T01:49:39.308Z,100965.57
2018-04-02T01:52:07.768Z,100973.95
2018-04-02T01:54:36.285Z,100972.56
2018-04-02T01:57:05.147Z,100976.47
2018-04-02T01:59:33.627Z,100978.88
2018-04-02T02:02:02.159Z,100980.31
2018-04-02T02:04:30.523Z,100984.91
2018-04-02T02:06:59.028Z,100977.09
2018-04-02T02:09:27.359Z,100976.56
2018-04-02T02:11:55.885Z,100973.71
2018-04-02T02:14:24.220Z,100978.06
2018-04-02T02:16:53.342Z,100979.63
2018-04-02T02:19:22.721Z,100973.84
2018-04-02T02:21:51.778Z,100973.75
2018-04-02T02:24:20.358Z,100968.33
2018-04-02T02:26:48.732Z,100970.31
2018-04-02T02:29:17.064Z,100965.23
2018-04-02T02:31:46.347Z,100961.91
2018-04-02T02:34:14.826Z,100953.84
2018-04-02T02:36:43.525Z,100954.39
2018-04-02T02:39:12.057Z,100951.50
2018-04-02T02:41:40.465Z,100955.91
2018-04-02T02:44:08.785Z,100951.72
2018-04-02T02:46:37.249Z,100957.39
2018-04-02T02:49:07.031Z,100955.07
2018-04-02T02:51:35.486Z,100959.63
2018-04-02T02:54:03.815Z,100957.94
2018-04-02T02:56:32.935Z,100955.70
2018-04-02T02:59:01.439Z,100957.22
2018-04-02T03:01:29.778Z,100954.16
2018-04-02T03:03:58.447Z,100949.89
2018-04-02T03:06:28.274Z,100954.84
2018-04-02T03:08:57.505Z,100956.86
2018-04-02T03:11:26.165Z,100951.75
2018-04-02T03:13:54.834Z,100958.05
2018-04-02T03:16:23.132Z,100945.53
2018-04-02T03:18:51.664Z,100949.41
2018-04-02T03:21:20.080Z,100947.77
2018-04-02T03:23:49.179Z,100948.33
2018-04-02T03:26:17.886Z,100944.23
2018-04-02T03:28:46.329Z,100944.39
2018-04-02T03:31:17.706Z,100943.64
2018-04-02T03:33:47.047Z,100944.23
2018-04-02T03:36:15.529Z,100944.18
2018-04-02T03:38:43.970Z,100945.89
2018-04-02T03:41:12.510Z,100943.55
2018-04-02T03:43:40.943Z,100951.00
2018-04-02T03:46:10.091Z,100955.27
2018-04-02T03:48:38.542Z,100950.69
2018-04-02T03:51:07.213Z,100958.14
2018-04-02T03:53:35.613Z,100958.48
2018-04-02T03:56:03.993Z,100956.06
2018-04-02T03:58:32.456Z,100956.94
2018-04-02T04:01:00.846Z,100952.59
2018-04-02T04:03:29.227Z,100952.03
2018-04-02T04:05:58.149Z,100954.66
2018-04-02T04:08:26.609Z,100954.97
2018-04-02T04:10:55.326Z,100953.26
2018-04-02T04:13:24.381Z,100951.38
2018-04-02T04:15:52.729Z,100960.43
2018-04-02T04:18:21.967Z,100956.91
2018-04-02T04:20:50.436Z,100962.63
2018-04-02T04:23:18.943Z,100967.11
2018-04-02T04:25:48.020Z,100969.07
2018-04-02T04:28:16.340Z,100964.53
2018-04-02T04:30:45.059Z,100973.31
2018-04-02T04:33:13.668Z,100977.28
2018-04-02T04:35:42.376Z,100978.45
2018-04-02T04:38:10.687Z,100983.80
2018-04-02T04:40:39.044Z,100975.25
2018-04-02T04:43:07.373Z,100984.81
2018-04-02T04:45:36.031Z,100983.73
2018-04-02T04:48:04.373Z,100983.42
2018-04-02T04:50:32.793Z,100981.02
2018-04-02T04:53:01.094Z,100981.50
2018-04-02T04:55:30.430Z,100979.05
2018-04-02T04:57:58.811Z,100981.08
2018-04-02T05:00:27.109Z,100978.56
2018-04-02T05:02:56.454Z,100974.50
2018-04-02T05:05:24.835Z,100971.97
2018-04-02T05:07:54.715Z,100977.81
2018-04-02T05:10:23.336Z,100981.87
2018-04-02T05:12:52.024Z,100981.76
2018-04-02T05:15:20.360Z,100984.12
2018-04-02T05:17:48.876Z,100976.60
2018-04-02T05:20:17.965Z,100984.02
2018-04-02T05:22:47.236Z,100979.31
2018-04-02T05:25:15.640Z,100976.33
2018-04-02T05:27:43.963Z,100973.91
2018-04-02T05:30:12.349Z,100982.98
2018-04-02T05:32:40.750Z,100974.82
2018-04-02T05:35:09.068Z,100979.11
2018-04-02T05:37:38.373Z,100984.22
2018-04-02T05:40:07.569Z,100982.03
2018-04-02T05:42:35.887Z,100980.80
2018-04-02T05:45:04.280Z,100984.39
2018-04-02T05:47:32.642Z,100976.33
2018-04-02T05:50:00.973Z,100980.72
2018-04-02T05:52:30.072Z,100986.59
2018-04-02T05:54:59.223Z,100985.08
2018-04-02T05:57:27.548Z,100987.92
2018-04-02T05:59:55.905Z,100978.91
2018-04-02T06:02:24.709Z,100979.00
2018-04-02T06:04:53.047Z,100984.44
2018-04-02T06:07:21.360Z,100982.56
2018-04-02T06:09:49.725Z,100982.61
2018-04-02T06:12:18.098Z,100986.98
2018-04-02T06:14:46.431Z,100986.17
2018-04-02T06:17:14.789Z,100990.22
2018-04-02T06:19:43.113Z,100990.73
2018-04-02T06:22:12.164Z,100990.98
2018-04-02T06:24:42.291Z,100984.83
2018-04-02T06:27:10.660Z,100993.41
2018-04-02T06:29:39.737Z,100995.41
2018-04-02T06:32:08.108Z,100994.33
2018-04-02T06:34:36.476Z,100996.48
2018-04-02T06:37:04.849Z,101000.61
2018-04-02T06:39:33.133Z,100991.59
2018-04-02T06:42:01.452Z,100992.37
2018-04-02T06:44:29.776Z,100988.00
2018-04-02T06:46:58.333Z,100990.88
2018-04-02T06:49:26.662Z,100987.20
2018-04-02T06:51:54.990Z,100984.52
2018-04-02T06:54:23.346Z,100980.12
2018-04-02T06:56:52.438Z,100984.56
2018-04-02T06:59:21.579Z,100979.40
2018-04-02T07:01:49.940Z,100979.72
2018-04-02T07:04:18.298Z,100980.20
2018-04-02T07:06:47.389Z,100984.84
2018-04-02T07:09:16.592Z,100979.03
2018-04-02T07:11:45.712Z,100990.27
2018-04-02T07:14:14.035Z,100989.92
2018-04-02T07:16:43.208Z,100990.61
2018-04-02T07:19:11.554Z,100989.84
2018-04-02T07:21:40.072Z,100993.13
2018-04-02T07:24:08.456Z,100991.01
2018-04-02T07:26:36.808Z,100987.48
2018-04-02T07:29:05.135Z,100985.06
2018-04-02T07:31:33.561Z,100976.91
2018-04-02T07:34:01.936Z,100981.70
2018-04-02T07:36:31.066Z,100984.00
2018-04-02T07:38:59.457Z,100985.80
2018-04-02T07:41:28.567Z,100991.06
2018-04-02T07:43:56.943Z,100985.09
2018-04-02T07:46:26.024Z,100986.16
2018-04-02T07:48:54.344Z,100985.61
2018-04-02T07:51:23.455Z,100987.36
2018-04-02T07:53:51.857Z,100988.36
2018-04-02T07:56:20.207Z,100981.27
2018-04-02T07:58:48.553Z,100989.23
2018-04-02T08:01:16.932Z,100992.89
2018-04-02T08:03:45.273Z,100995.66
2018-04-02T08:06:13.616Z,100997.05
2018-04-02T08:08:43.380Z,100995.46
2018-04-02T08:11:11.091Z,100990.25
2018-04-02T08:13:39.445Z,100997.02
2018-04-02T08:16:07.871Z,100992.36
2018-04-02T08:18:36.978Z,100989.71
2018-04-02T08:21:05.340Z,100994.11
2018-04-02T08:23:33.738Z,101000.96
2018-04-02T08:26:02.091Z,101001.36
2018-04-02T08:28:31.217Z,100990.00
2018-04-02T08:30:59.579Z,100987.97
2018-04-02T08:33:27.911Z,100981.00
2018-04-02T08:35:57.026Z,100979.80
2018-04-02T08:38:25.430Z,100981.78
2018-04-02T08:40:53.773Z,100974.33
2018-04-02T08:43:22.099Z,100972.36
2018-04-02T08:45:50.483Z,100965.48
2018-04-02T08:48:18.796Z,100961.52
2018-04-02T08:50:47.114Z,100964.08
2018-04-02T08:53:16.232Z,100964.56
2018-04-02T08:55:44.593Z,100967.77
2018-04-02T08:58:12.946Z,100972.22
2018-04-02T09:00:41.365Z,100960.80
2018-04-02T09:03:09.756Z,100963.73
2018-04-02T09:05:38.049Z,100969.20
2018-04-02T09:08:06.417Z,100968.63
2018-04-02T09:10:34.752Z,100969.42
2018-04-02T09:13:03.056Z,100963.27
2018-04-02T09:15:32.169Z,100967.34
2018-04-02T09:18:00.505Z,100965.80
2018-04-02T09:20:28.817Z,100966.69
2018-04-02T09:22:57.686Z,100962.89
2018-04-02T09:25:26.023Z,100947.52
2018-04-02T09:27:54.330Z,100951.77
2018-04-02T09:30:22.707Z,100943.72
2018-04-02T09:32:51.040Z,100936.06
2018-04-02T09:35:19.370Z,100940.91
2018-04-02T09:37:48.600Z,100933.85
2018-04-02T09:40:16.987Z,100935.41
2018-04-02T09:42:45.342Z,100936.31
2018-04-02T09:45:13.872Z,100928.00
2018-04-02T09:47:43.075Z,100931.13
2018-04-02T09:50:11.414Z,100913.61
2018-04-02T09:52:39.765Z,100912.80
2018-04-02T09:55:08.098Z,100919.79
2018-04-02T09:57:36.437Z,100910.91
2018-04-02T10:00:04.833Z,100911.17
2018-04-02T10:02:37.080Z,100906.19
2018-04-02T10:05:06.489Z,100904.06
2018-04-02T10:07:34.619Z,100899.55
2018-04-02T10:10:02.983Z,100895.13
2018-04-02T10:12:31.317Z,100899.41
2018-04-02T10:15:00.417Z,100889.37
2018-04-02T10:17:28.791Z,100891.05
2018-04-02T10:19:57.224Z,100888.39
2018-04-02T10:22:25.518Z,100887.30
2018-04-02T10:24:53.820Z,100885.33
2018-04-02T10:27:23.020Z,100875.95
2018-04-02T10:29:52.317Z,100890.23
2018-04-02T10:32:20.590Z,100879.77
2018-04-02T10:34:48.952Z,100877.11
2018-04-02T10:37:17.287Z,100874.52
2018-04-02T10:39:45.632Z,100873.47
2018-04-02T10:42:14.799Z,100870.98
2018-04-02T10:44:43.139Z,100867.98
2018-04-02T10:47:11.497Z,100860.98
2018-04-02T10:49:40.326Z,100854.52
2018-04-02T10:52:08.664Z,100860.16
2018-04-02T10:54:37.738Z,100848.17
2018-04-02T10:57:06.180Z,100854.17
2018-04-02T10:59:34.509Z,100841.97
2018-04-02T11:02:03.630Z,100835.62
2018-04-02T11:04:32.031Z,100839.09
2018-04-02T11:07:00.345Z,100828.31
2018-04-02T11:09:28.658Z,100825.31
2018-04-02T11:11:58.127Z,100832.53
2018-04-02T11:14:26.551Z,100830.44
2018-04-02T11:16:54.904Z,100824.88
2018-04-02T11:19:24.568Z,100824.88
2018-04-02T11:21:52.901Z,100824.36
2018-04-02T11:24:22.048Z,100822.00
2018-04-02T11:26:50.463Z,100814.70
2018-04-02T11:29:18.824Z,100813.19
2018-04-02T11:31:47.158Z,100812.14
2018-04-02T11:34:15.778Z,100803.11
2018-04-02T11:36:44.084Z,100804.32
2018-04-02T11:39:12.397Z,100813.23
2018-04-02T11:41:40.741Z,100804.58
2018-04-02T11:44:09.086Z,100801.52
2018-04-02T11:46:37.426Z,100780.77
2018-04-02T11:49:06.587Z,100786.13
2018-04-02T11:51:35.720Z,100780.87
2018-04-02T11:54:04.071Z,100783.02
2018-04-02T11:56:32.781Z,100777.71
2018-04-02T11:59:01.848Z,100771.61
2018-04-02T12:01:30.196Z,100771.33
2018-04-02T12:03:58.596Z,100772.31
2018-04-02T12:06:26.866Z,100760.92
2018-04-02T12:08:55.193Z,100763.13
2018-04-02T12:11:23.537Z,100756.65
2018-04-02T12:13:51.905Z,100763.64
2018-04-02T12:16:20.322Z,100760.75
2018-04-02T12:18:49.556Z,100772.25
2018-04-02T12:21:17.857Z,100766.42
2018-04-02T12:23:46.175Z,100761.25
2018-04-02T12:26:15.356Z,100756.68
2018-04-02T12:28:43.722Z,100753.33
2018-04-02T12:31:12.052Z,100755.36
2018-04-02T12:33:40.389Z,100749.81
2018-04-02T12:36:10.371Z,100737.41
2018-04-02T12:38:38.755Z,100723.30
2018-04-02T12:41:07.275Z,100726.80
2018-04-02T12:43:35.583Z,100727.59
2018-04-02T12:46:03.952Z,100728.23
2018-04-02T12:48:33.102Z,100735.20
2018-04-02T12:51:01.381Z,100723.80
2018-04-02T12:53:29.726Z,100716.72
2018-04-02T12:55:58.087Z,100719.59
2018-04-02T12:58:27.192Z,100718.48
2018-04-02T13:00:55.506Z,100713.91
2018-04-02T13:03:24.464Z,100717.73
2018-04-02T13:05:52.815Z,100714.41
2018-04-02T13:08:21.154Z,100713.72
2018-04-02T13:10:49.544Z,100710.64
2018-04-02T13:13:17.879Z,100703.23
2018-04-02T13:15:46.213Z,100700.70
2018-04-02T13:18:14.727Z,100701.89
2018-04-02T13:20:43.250Z,100697.92
2018-04-02T13:23:11.582Z,100695.08
2018-04-02T13:25:40.750Z,100703.38
2018-04-02T13:28:09.088Z,100697.69
2018-04-02T13:30:37.445Z,100699.36
2018-04-02T13:33:06.549Z,100690.02
2018-04-02T13:35:35.637Z,100673.66
2018-04-02T13:38:04.808Z,100675.63
2018-04-02T13:40:33.169Z,100688.55
2018-04-02T13:43:01.491Z,100679.95
2018-04-02T13:45:30.585Z,100686.61
2018-04-02T13:48:00.091Z,100679.72
2018-04-02T13:50:29.501Z,100680.06
2018-04-02T13:52:58.372Z,100676.79
2018-04-02T13:55:27.520Z,100672.02
2018-04-02T13:57:55.899Z,100669.88
2018-04-02T14:00:24.284Z,100658.16
2018-04-02T14:02:52.732Z,100647.23
2018-04-02T14:05:21.058Z,100653.09
2018-04-02T14:07:49.554Z,100657.92
2018-04-02T14:10:19.207Z,100655.69
2018-04-02T14:12:47.525Z,100647.99
2018-04-02T14:15:15.931Z,100649.48
2018-04-02T14:17:44.302Z,100641.05
2018-04-02T14:20:13.406Z,100640.45
2018-04-02T14:22:42.524Z,100638.23
2018-04-02T14:25:11.653Z,100627.13
2018-04-02T14:27:39.971Z,100633.16
2018-04-02T14:30:08.374Z,100619.22
2018-04-02T14:32:36.893Z,100629.14
2018-04-02T14:35:05.306Z,100621.62
2018-04-02T14:37:33.624Z,100615.09
2018-04-02T14:40:02.857Z,100606.22
2018-04-02T14:42:31.190Z,100604.95
2018-04-02T14:45:00.288Z,100606.77
2018-04-02T14:47:29.588Z,100600.69
2018-04-02T14:49:57.934Z,100602.94
2018-04-02T14:52:26.284Z,100595.11
2018-04-02T14:54:54.937Z,100592.91
2018-04-02T14:57:23.444Z,100590.41
2018-04-02T14:59:51.761Z,100582.30
2018-04-02T15:02:20.925Z,100582.80
2018-04-02T15:04:49.240Z,100576.45
2018-04-02T15:07:17.582Z,100573.98
2018-04-02T15:12:20.305Z,100575.83
2018-04-02T15:14:48.707Z,100560.22
2018-04-02T15:17:17.060Z,100563.73
2018-04-02T15:19:45.384Z,100562.61
2018-04-02T15:22:14.500Z,100552.18
2018-04-02T15:24:43.909Z,100548.88
2018-04-02T15:27:12.297Z,100547.36
2018-04-02T15:29:40.683Z,100543.28
2018-04-02T15:32:09.010Z,100541.30
2018-04-02T15:34:37.363Z,100535.39
2018-04-02T15:37:05.797Z,100536.00
2018-04-02T15:39:34.170Z,100527.61
2018-04-02T15:42:03.632Z,100535.63
2018-04-02T15:44:32.185Z,100530.79
2018-04-02T15:47:00.545Z,100529.69
2018-04-02T15:49:28.923Z,100517.22
2018-04-02T15:51:57.302Z,100511.70
2018-04-02T15:54:25.634Z,100513.37
2018-04-02T15:56:54.634Z,100515.66
2018-04-02T15:59:23.238Z,100512.99
2018-04-02T16:01:52.352Z,100502.09
2018-04-02T16:04:21.530Z,100502.00
2018-04-02T16:06:50.709Z,100500.41
2018-04-02T16:09:20.552Z,100491.63
2018-04-02T16:11:49.661Z,100487.22
2018-04-02T16:14:18.055Z,100486.89
2018-04-02T16:16:46.377Z,100491.01
2018-04-02T16:19:14.746Z,100484.06
2018-04-02T16:21:43.462Z,100482.77
2018-04-02T16:24:11.799Z,100482.62
2018-04-02T16:26:40.118Z,100474.48
2018-04-02T16:29:09.237Z,100474.15
2018-04-02T16:31:37.573Z,100469.75
2018-04-02T16:34:05.920Z,100465.33
2018-04-02T16:36:34.297Z,100467.73
2018-04-02T16:39:02.863Z,100470.91
2018-04-02T16:41:31.270Z,100463.83
2018-04-02T16:43:59.857Z,100468.25
2018-04-02T16:46:28.186Z,100457.46
2018-04-02T16:48:56.562Z,100457.44
2018-04-02T16:51:24.938Z,100460.00
2018-04-02T16:53:53.319Z,100463.91
2018-04-02T16:56:22.438Z,100470.59
2018-04-02T16:58:50.809Z,100465.88
2018-04-02T17:01:19.140Z,100461.02
2018-04-02T17:03:47.906Z,100456.95
2018-04-02T17:06:16.590Z,100448.83
2018-04-02T17:08:44.920Z,100458.70
2018-04-02T17:11:14.038Z,100446.84
2018-04-02T17:13:43.132Z,100445.88
2018-04-02T17:16:12.205Z,100439.71
2018-04-02T17:18:40.535Z,100444.46
2018-04-02T17:21:08.905Z,100442.02
2018-04-02T17:23:37.259Z,100433.55
2018-04-02T17:26:06.342Z,100432.44
2018-04-02T17:28:35.661Z,100426.80
2018-04-02T17:31:04.021Z,100428.60
2018-04-02T17:33:32.363Z,100435.42
2018-04-02T17:36:00.715Z,100433.01
2018-04-02T17:38:29.079Z,100426.45
2018-04-02T17:40:57.456Z,100423.81
2018-04-02T17:43:25.870Z,100426.00
2018-04-02T17:45:54.221Z,100429.54
2018-04-02T17:48:22.554Z,100432.30
2018-04-02T17:50:51.269Z,100425.06
2018-04-02T17:53:19.643Z,100418.92
2018-04-02T17:55:48.761Z,100416.78
2018-04-02T17:58:17.229Z,100417.34
2018-04-02T18:00:45.677Z,100421.48
2018-04-02T18:03:14.022Z,100419.45
2018-04-02T18:05:42.380Z,100417.86
2018-04-02T18:08:11.487Z,100414.42
2018-04-02T18:10:39.871Z,100419.12
2018-04-02T18:13:08.551Z,100417.01
2018-04-02T18:15:36.865Z,100407.66
2018-04-02T18:18:05.227Z,100405.28
2018-04-02T18:20:33.597Z,100400.14
2018-04-02T18:23:01.940Z,100392.87
2018-04-02T18:25:30.681Z,100388.99
2018-04-02T18:27:59.056Z,100390.28
2018-04-02T18:30:27.424Z,100387.31
2018-04-02T18:32:55.754Z,100386.28
2018-04-02T18:35:24.158Z,100378.89
2018-04-02T18:37:53.243Z,100383.13
2018-04-02T18:40:21.605Z,100378.20
2018-04-02T18:42:50.759Z,100373.02
2018-04-02T18:45:19.139Z,100375.04
2018-04-02T18:47:47.457Z,100376.60
2018-04-02T18:50:15.819Z,100374.19
2018-04-02T18:52:44.170Z,100381.19
2018-04-02T18:55:12.480Z,100378.68
2018-04-02T18:57:40.984Z,100364.91
2018-04-02T19:00:09.395Z,100361.94
2018-04-02T19:02:37.746Z,100363.43
2018-04-02T19:05:06.887Z,100357.56
2018-04-02T19:07:35.207Z,100346.65
2018-04-02T19:10:03.542Z,100344.09
2018-04-02T19:12:31.891Z,100343.49
2018-04-02T19:15:01.006Z,100338.73
2018-04-02T19:17:29.331Z,100340.47
2018-04-02T19:19:58.064Z,100340.06
2018-04-02T19:22:26.394Z,100335.59
2018-04-02T19:24:54.757Z,100325.88
2018-04-02T19:27:23.138Z,100319.13
2018-04-02T19:29:51.464Z,100319.97
2018-04-02T19:32:20.547Z,100319.55
2018-04-02T19:34:48.942Z,100313.27
2018-04-02T19:37:17.258Z,100311.19
2018-04-02T19:39:45.701Z,100308.56
2018-04-02T19:42:14.183Z,100301.72
2018-04-02T19:44:43.523Z,100299.66
2018-04-02T19:47:12.016Z,100299.07
2018-04-02T19:49:40.519Z,100292.89
2018-04-02T19:52:08.861Z,100287.58
2018-04-02T19:54:37.214Z,100284.13
2018-04-02T19:57:05.686Z,100282.42
2018-04-02T19:59:34.181Z,100270.11
2018-04-02T20:02:02.563Z,100264.97
2018-04-02T20:04:31.133Z,100265.45
2018-04-02T20:07:00.236Z,100253.20
2018-04-02T20:09:28.590Z,100250.64
2018-04-02T20:11:57.201Z,100253.36
2018-04-02T20:14:25.892Z,100247.37
2018-04-02T20:16:54.241Z,100245.77
2018-04-02T20:19:22.636Z,100236.72
2018-04-02T20:21:51.741Z,100240.37
2018-04-02T20:24:20.079Z,100231.17
2018-04-02T20:26:48.920Z,100224.24
2018-04-02T20:29:17.258Z,100215.20
2018-04-02T20:31:45.602Z,100217.22
2018-04-02T20:34:14.744Z,100206.50
2018-04-02T20:36:43.080Z,100205.73
2018-04-02T20:39:11.396Z,100209.70
2018-04-02T20:41:40.112Z,100200.00
2018-04-02T20:44:09.201Z,100196.44
2018-04-02T20:46:37.560Z,100192.08
2018-04-02T20:49:06.331Z,100182.95
2018-04-02T20:51:35.493Z,100171.56
2018-04-02T20:54:03.845Z,100176.44
2018-04-02T20:56:32.195Z,100169.41
2018-04-02T20:59:00.614Z,100157.52
2018-04-02T21:01:29.019Z,100160.70
2018-04-02T21:03:57.389Z,100167.25
2018-04-02T21:06:25.730Z,100147.65
2018-04-02T21:08:54.849Z,100157.59
2018-04-02T21:11:23.513Z,100156.16
2018-04-02T21:13:52.607Z,100156.16
2018-04-02T21:16:21.704Z,100153.72
2018-04-02T21:18:50.842Z,100156.58
2018-04-02T21:21:19.192Z,100150.64
2018-04-02T21:23:47.531Z,100157.47
2018-04-02T21:26:15.916Z,100142.77
2018-04-02T21:28:44.270Z,100150.83
2018-04-02T21:31:12.592Z,100135.25
2018-04-02T21:33:41.035Z,100125.59
2018-04-02T21:36:09.349Z,100120.97
2018-04-02T21:38:37.703Z,100121.80
2018-04-02T21:41:06.070Z,100110.67
2018-04-02T21:43:34.621Z,100111.67
2018-04-02T21:46:03.264Z,100113.47
2018-04-02T21:48:31.710Z,100097.13
2018-04-02T21:51:00.058Z,100098.15
2018-04-02T21:53:29.128Z,100082.73
2018-04-02T21:55:57.583Z,100076.25
2018-04-02T21:58:25.884Z,100078.95
2018-04-02T22:00:54.241Z,100062.56
2018-04-02T22:03:22.629Z,100053.66
2018-04-02T22:05:51.026Z,100056.97
2018-04-02T22:08:19.362Z,100043.70
2018-04-02T22:10:47.772Z,100054.71
2018-04-02T22:13:16.159Z,100039.33
2018-04-02T22:15:45.289Z,100031.31
2018-04-02T22:18:14.585Z,100040.77
2018-04-02T22:20:43.711Z,100036.38
2018-04-02T22:23:12.014Z,100029.10
2018-04-02T22:25:40.435Z,100035.22
2018-04-02T22:28:09.544Z,100027.24
2018-04-02T22:30:37.972Z,100017.08
2018-04-02T22:33:06.327Z,100026.38
2018-04-02T22:35:34.681Z,100008.46
2018-04-02T22:38:03.028Z,100008.83
2018-04-02T22:40:33.108Z,100003.66
2018-04-02T22:43:01.705Z,99996.33
2018-04-02T22:45:30.136Z,99998.27
2018-04-02T22:47:59.247Z,99999.30
2018-04-02T22:50:27.560Z,99999.14
2018-04-02T22:52:55.906Z,100001.44
2018-04-02T22:55:24.274Z,99990.56
2018-04-02T22:57:53.418Z,99996.45
2018-04-02T23:00:22.737Z,99994.00
2018-04-02T23:02:51.174Z,99994.48
2018-04-02T23:05:19.606Z,99993.73
2018-04-02T23:07:48.177Z,99982.46
2018-04-02T23:10:16.745Z,99991.42
2018-04-02T23:12:45.120Z,99988.71
2018-04-02T23:15:13.455Z,99986.91
2018-04-02T23:17:42.019Z,99987.38
2018-04-02T23:20:10.397Z,99982.98
2018-04-02T23:22:53.092Z,99979.69
2018-04-02T23:25:21.466Z,99981.00
2018-04-02T23:27:49.978Z,99981.29
2018-04-02T23:30:18.309Z,99977.19
2018-04-02T23:32:49.044Z,99963.77
2018-04-02T23:35:17.411Z,99971.03
2018-04-02T23:37:45.802Z,99971.54
2018-04-02T23:40:14.120Z,99970.58
2018-04-02T23:42:43.105Z,99971.67
2018-04-02T23:45:11.629Z,99964.16
2018-04-02T23:47:39.973Z,99966.66
2018-04-02T23:50:09.060Z,99968.95
2018-04-02T23:52:37.388Z,99962.61
2018-04-02T23:55:05.786Z,99964.56
2018-04-02T23:57:34.123Z,99965.56
